Time;durP1;ratioP1;P1;durP2;ratioP2;P2;SDS_P1;SDS_P2;PMS_P1;PMS_P2;Temp;Humidity;BMP_temperature;BMP_pressure;BME280_temperature;BME280_humidity;BME280_pressure;Samples;Min_cycle;Max_cycle;Signal;HPM_P1;HPM_P2
2023/04/01 00:01:49;;;;;;;2.30;0.95;;;11.10;99.90;;;;;;1916873;75;21167;-82
2023/04/01 00:04:41;;;;;;;2.72;0.95;;;11.10;99.90;;;;;;1916813;75;21083;-83
2023/04/01 00:07:33;;;;;;;1.85;0.93;;;11.10;99.90;;;;;;1916472;75;21176;-81
2023/04/01 00:10:24;;;;;;;2.17;1.02;;;11.10;99.90;;;;;;1916724;75;21111;-81
2023/04/01 00:13:16;;;;;;;2.27;1.22;;;11.00;99.90;;;;;;1916870;75;21127;-81
2023/04/01 00:16:08;;;;;;;3.12;1.10;;;11.00;99.90;;;;;;1916856;75;21127;-81
2023/04/01 00:19:01;;;;;;;2.83;1.00;;;11.00;99.90;;;;;;1927446;73;21131;-81
2023/04/01 00:21:54;;;;;;;2.72;0.85;;;11.00;99.90;;;;;;1927743;73;21180;-80
2023/04/01 00:24:46;;;;;;;1.98;0.80;;;10.90;99.90;;;;;;1928500;73;21117;-81
2023/04/01 00:27:38;;;;;;;2.98;1.35;;;10.80;99.90;;;;;;1916921;75;21549;-81
2023/04/01 00:30:29;;;;;;;2.92;0.80;;;10.80;99.90;;;;;;1916771;75;21107;-81
2023/04/01 00:33:21;;;;;;;1.87;0.72;;;10.60;99.90;;;;;;1915877;75;21047;-81
2023/04/01 00:36:14;;;;;;;2.72;0.80;;;10.60;99.90;;;;;;1916225;75;21227;-81
2023/04/01 00:39:06;;;;;;;2.20;1.10;;;10.40;99.90;;;;;;1916864;75;21319;-81
2023/04/01 00:41:58;;;;;;;3.85;1.10;;;10.30;99.90;;;;;;1929834;73;21909;-82
2023/04/01 00:44:53;;;;;;;2.12;1.02;;;10.30;99.90;;;;;;1920133;73;21131;-82
2023/04/01 00:47:44;;;;;;;2.70;0.93;;;10.20;99.90;;;;;;1916496;75;21094;-81
2023/04/01 00:50:38;;;;;;;3.05;1.07;;;10.20;99.90;;;;;;1916834;75;21106;-81
2023/04/01 00:53:31;;;;;;;2.25;0.85;;;10.20;99.90;;;;;;1916915;75;21143;-81
2023/04/01 00:59:08;;;;;;;2.98;1.00;;;10.10;99.90;;;;;;1950779;72;22158;-82
2023/04/01 01:02:00;;;;;;;2.58;1.20;;;10.10;99.90;;;;;;1905799;75;21157;-82
2023/04/01 01:04:51;;;;;;;2.25;0.80;;;10.10;99.90;;;;;;1896498;75;21148;-82
2023/04/01 01:07:46;;;;;;;2.58;0.85;;;10.10;99.90;;;;;;1897193;73;21117;-82
2023/04/01 01:10:39;;;;;;;4.05;1.17;;;10.20;99.90;;;;;;1917110;73;21113;-82
2023/04/01 01:13:34;;;;;;;1.90;0.80;;;10.10;99.90;;;;;;1891492;75;21059;-81
2023/04/01 01:19:18;;;;;;;1.85;1.00;;;10.20;99.90;;;;;;1954159;72;22178;-82
2023/04/01 01:22:21;;;;;;;3.75;0.93;;;10.20;99.90;;;;;;1884277;74;21156;-82
2023/04/01 01:25:20;;;;;;;1.90;1.02;;;10.20;99.90;;;;;;1905812;75;21152;-82
2023/04/01 01:28:29;;;;;;;2.52;1.07;;;10.20;99.90;;;;;;1883834;76;21164;-82
2023/04/01 01:31:24;;;;;;;2.95;1.00;;;10.20;99.90;;;;;;1905868;75;21063;-80
2023/04/01 01:34:21;;;;;;;2.30;0.98;;;10.20;99.90;;;;;;1905177;75;21208;-80
2023/04/01 01:37:15;;;;;;;2.95;1.05;;;10.10;99.90;;;;;;1899988;75;21106;-80
2023/04/01 01:40:11;;;;;;;4.92;1.20;;;10.20;99.90;;;;;;1895847;75;21172;-80
2023/04/01 01:43:06;;;;;;;2.92;0.85;;;10.20;99.90;;;;;;1894911;75;21614;-80
2023/04/01 01:46:00;;;;;;;2.60;0.88;;;10.30;99.90;;;;;;1894772;75;21102;-80
2023/04/01 01:48:55;;;;;;;2.72;1.00;;;10.20;99.90;;;;;;1895263;75;21209;-82
2023/04/01 01:51:47;;;;;;;3.08;1.25;;;10.30;99.90;;;;;;1900661;75;21181;-82
2023/04/01 01:54:51;;;;;;;4.65;0.90;;;10.20;99.90;;;;;;1895761;75;21098;-82
2023/04/01 01:57:46;;;;;;;3.55;0.85;;;10.20;99.90;;;;;;1894339;75;21123;-82
2023/04/01 02:00:40;;;;;;;4.85;0.98;;;10.10;99.90;;;;;;1890816;75;21105;-81
2023/04/01 02:03:35;;;;;;;2.98;0.88;;;10.20;99.90;;;;;;1904494;75;21138;-81
2023/04/01 02:06:29;;;;;;;3.67;0.85;;;10.20;99.90;;;;;;1900850;75;21521;-82
2023/04/01 02:09:21;;;;;;;3.47;1.10;;;10.20;99.90;;;;;;1894825;75;21180;-82
2023/04/01 02:12:16;;;;;;;2.17;0.82;;;10.10;99.90;;;;;;1894612;75;21235;-82
2023/04/01 02:15:11;;;;;;;3.77;1.00;;;10.10;99.90;;;;;;1895181;75;21118;-82
2023/04/01 02:18:03;;;;;;;5.70;1.30;;;10.10;99.90;;;;;;1897336;75;21149;-82
2023/04/01 02:20:56;;;;;;;7.67;1.30;;;10.20;99.90;;;;;;1898507;75;21083;-82
2023/04/01 02:23:48;;;;;;;2.98;0.80;;;10.20;99.90;;;;;;1894736;75;21091;-82
2023/04/01 02:26:40;;;;;;;2.75;0.90;;;10.30;99.90;;;;;;1894894;75;21205;-82
2023/04/01 02:29:32;;;;;;;1.92;0.80;;;10.40;99.90;;;;;;1895266;75;21156;-82
2023/04/01 02:32:24;;;;;;;1.70;0.82;;;10.40;99.90;;;;;;1900319;75;21123;-81
2023/04/01 02:35:18;;;;;;;2.55;0.85;;;10.40;99.90;;;;;;1895173;75;21344;-80
2023/04/01 02:38:15;;;;;;;2.02;0.98;;;10.40;99.90;;;;;;1909371;75;21349;-80
2023/04/01 02:41:06;;;;;;;2.75;1.00;;;10.40;99.90;;;;;;1908165;75;21055;-81
2023/04/01 02:43:59;;;;;;;2.47;0.75;;;10.40;99.90;;;;;;1915950;75;21118;-81
2023/04/01 02:46:50;;;;;;;4.30;0.78;;;10.40;99.90;;;;;;1882830;76;21195;-81
2023/04/01 02:49:42;;;;;;;2.27;0.70;;;10.40;99.90;;;;;;1905494;75;21127;-81
2023/04/01 02:52:34;;;;;;;4.30;0.95;;;10.30;99.90;;;;;;1905597;75;22318;-81
2023/04/01 02:55:25;;;;;;;3.08;1.02;;;10.30;99.90;;;;;;1883348;75;21669;-81
2023/04/01 02:58:16;;;;;;;1.47;0.70;;;10.30;99.90;;;;;;1899752;75;21090;-82
2023/04/01 03:01:08;;;;;;;2.92;0.98;;;10.30;99.90;;;;;;1884147;75;21064;-81
2023/04/01 03:03:59;;;;;;;2.67;1.05;;;10.40;99.90;;;;;;1888058;75;21091;-80
2023/04/01 03:06:51;;;;;;;2.92;0.98;;;10.40;99.90;;;;;;1894247;75;21267;-80
2023/04/01 03:09:42;;;;;;;4.45;1.00;;;10.30;99.90;;;;;;1900198;75;21139;-84
2023/04/01 03:12:34;;;;;;;3.00;1.10;;;10.30;99.90;;;;;;1904874;75;21107;-81
2023/04/01 03:15:25;;;;;;;2.25;0.90;;;10.40;99.90;;;;;;1889947;75;21094;-82
2023/04/01 03:18:17;;;;;;;4.17;1.30;;;10.40;99.90;;;;;;1893925;75;21110;-82
2023/04/01 03:21:17;;;;;;;3.80;1.30;;;10.40;99.90;;;;;;1916036;75;21609;-81
2023/04/01 03:24:09;;;;;;;3.05;1.40;;;10.40;99.90;;;;;;1883192;76;21188;-80
2023/04/01 03:27:00;;;;;;;3.33;1.20;;;10.30;99.90;;;;;;1904753;75;21091;-80
2023/04/01 03:29:52;;;;;;;4.97;1.47;;;10.20;99.90;;;;;;1905292;75;21158;-80
2023/04/01 03:32:44;;;;;;;2.90;1.12;;;10.20;99.90;;;;;;1905008;75;21169;-80
2023/04/01 03:35:35;;;;;;;2.87;1.12;;;10.20;99.90;;;;;;1899845;75;21212;-81
2023/04/01 03:38:27;;;;;;;2.33;0.93;;;10.10;99.90;;;;;;1894767;75;21118;-81
2023/04/01 03:41:19;;;;;;;3.37;1.12;;;10.10;99.90;;;;;;1893454;75;21176;-81
2023/04/01 03:44:11;;;;;;;3.17;1.00;;;10.10;99.90;;;;;;1892823;75;21114;-82
2023/04/01 03:49:41;;;;;;;2.65;1.05;;;10.10;99.90;;;;;;1955696;72;22220;-81
2023/04/01 03:52:32;;;;;;;3.05;0.98;;;10.10;99.90;;;;;;1895836;74;21109;-82
2023/04/01 03:55:24;;;;;;;3.15;1.25;;;10.10;99.90;;;;;;1895510;75;21099;-82
2023/04/01 03:58:15;;;;;;;3.47;1.02;;;10.10;99.90;;;;;;1900019;75;21098;-82
2023/04/01 04:01:15;;;;;;;2.02;1.00;;;10.10;99.90;;;;;;1882963;75;21089;-82
2023/04/01 04:04:07;;;;;;;3.10;1.20;;;10.20;99.90;;;;;;1905641;75;21590;-81
2023/04/01 04:06:58;;;;;;;2.98;1.05;;;10.10;99.90;;;;;;1905497;75;21775;-81
2023/04/01 04:09:51;;;;;;;3.22;1.10;;;10.10;99.90;;;;;;1883399;76;21087;-82
2023/04/01 04:12:43;;;;;;;5.08;1.47;;;10.10;99.90;;;;;;1897271;75;21149;-81
2023/04/01 04:15:34;;;;;;;2.65;1.15;;;10.10;99.90;;;;;;1894588;75;21090;-82
2023/04/01 04:18:25;;;;;;;2.05;1.00;;;10.10;99.90;;;;;;1894844;75;21138;-81
2023/04/01 04:21:17;;;;;;;2.90;0.90;;;10.10;99.90;;;;;;1897592;75;21665;-82
2023/04/01 04:24:09;;;;;;;2.62;0.82;;;10.10;99.90;;;;;;1898077;75;21114;-81
2023/04/01 04:27:17;;;;;;;3.12;1.02;;;10.10;99.90;;;;;;1896691;75;21139;-82
2023/04/01 04:30:12;;;;;;;1.77;0.82;;;10.10;99.90;;;;;;1916659;75;21110;-81
2023/04/01 04:33:03;;;;;;;2.00;0.90;;;10.00;99.90;;;;;;1914221;75;21095;-81
2023/04/01 04:38:37;;;;;;;2.20;0.93;;;9.70;99.90;;;;;;1950610;72;22258;-80
2023/04/01 04:41:29;;;;;;;4.58;1.02;;;9.70;99.90;;;;;;1877506;75;21156;-83
2023/04/01 04:44:20;;;;;;;3.33;1.02;;;9.80;99.90;;;;;;1895566;75;21111;-82
2023/04/01 04:47:11;;;;;;;4.45;1.35;;;9.80;99.90;;;;;;1886112;75;21102;-82
2023/04/01 04:50:03;;;;;;;4.37;1.30;;;9.90;99.90;;;;;;1885827;75;21099;-82
2023/04/01 04:52:55;;;;;;;5.35;1.27;;;10.00;99.90;;;;;;1882929;75;21124;-82
2023/04/01 04:55:47;;;;;;;5.28;1.00;;;10.00;99.90;;;;;;1879536;75;21132;-80
2023/04/01 04:58:49;;;;;;;3.40;1.12;;;10.10;99.90;;;;;;1885144;75;21091;-81
2023/04/01 05:01:43;;;;;;;3.20;1.20;;;10.10;99.90;;;;;;1890061;75;21709;-81
2023/04/01 05:04:37;;;;;;;3.00;1.32;;;10.10;99.90;;;;;;1891915;75;21180;-81
2023/04/01 05:07:32;;;;;;;5.05;1.07;;;10.00;99.90;;;;;;1893498;75;21108;-83
2023/04/01 05:10:23;;;;;;;5.15;1.50;;;9.90;99.90;;;;;;1871802;75;21156;-81
2023/04/01 05:13:15;;;;;;;4.62;1.02;;;10.00;99.90;;;;;;1872337;76;21226;-82
2023/04/01 05:16:11;;;;;;;1.95;1.00;;;10.00;99.90;;;;;;1887152;75;21554;-81
2023/04/01 05:19:02;;;;;;;2.58;1.07;;;10.10;99.90;;;;;;1883866;75;21091;-81
2023/04/01 05:21:55;;;;;;;2.95;1.30;;;10.10;99.90;;;;;;1897636;75;21098;-81
2023/04/01 05:24:46;;;;;;;4.42;1.80;;;10.20;99.90;;;;;;1893736;75;21095;-81
2023/04/01 05:27:38;;;;;;;3.80;1.20;;;10.20;99.90;;;;;;1889781;75;22015;-81
2023/04/01 05:30:30;;;;;;;2.42;1.10;;;10.20;99.90;;;;;;1891306;75;21118;-81
2023/04/01 05:33:22;;;;;;;3.55;1.22;;;10.20;99.90;;;;;;1884962;75;21176;-82
2023/04/01 05:36:17;;;;;;;3.17;1.40;;;10.20;99.90;;;;;;1889005;75;21116;-81
2023/04/01 05:39:09;;;;;;;2.98;1.37;;;10.20;99.90;;;;;;1823478;77;21140;-82
2023/04/01 05:42:00;;;;;;;3.25;1.25;;;10.20;99.90;;;;;;1889501;75;21095;-82
2023/04/01 05:44:52;;;;;;;2.75;1.15;;;10.20;99.90;;;;;;1894210;75;21063;-81
2023/04/01 05:48:02;;;;;;;3.17;1.22;;;10.10;99.90;;;;;;1897120;75;21187;-82
2023/04/01 05:50:55;;;;;;;3.37;1.10;;;9.90;99.90;;;;;;1899716;75;21644;-82
2023/04/01 05:53:46;;;;;;;4.00;1.50;;;9.70;99.90;;;;;;1882733;75;21087;-82
2023/04/01 05:56:37;;;;;;;6.05;2.00;;;9.70;99.90;;;;;;1888298;75;21182;-81
2023/04/01 05:59:30;;;;;;;2.60;1.15;;;9.60;99.90;;;;;;1903407;75;21102;-81
2023/04/01 06:05:11;;;;;;;3.10;1.20;;;9.80;99.90;;;;;;1955062;72;22265;-82
2023/04/01 06:08:08;;;;;;;3.75;1.30;;;9.70;99.90;;;;;;1916819;75;21085;-81
2023/04/01 06:11:06;;;;;;;4.60;1.40;;;9.70;99.90;;;;;;1929347;73;21164;-81
2023/04/01 06:14:06;;;;;;;3.87;1.55;;;9.70;99.90;;;;;;1919220;73;21157;-80
2023/04/01 06:17:07;;;;;;;3.10;1.32;;;9.70;99.90;;;;;;1916754;75;21201;-81
2023/04/01 06:20:02;;;;;;;2.85;1.00;;;9.80;99.90;;;;;;1916178;75;21106;-81
2023/04/01 06:23:21;;;;;;;4.75;1.37;;;9.80;99.90;;;;;;1916829;75;21268;-81
2023/04/01 06:26:20;;;;;;;3.37;1.25;;;9.80;99.90;;;;;;1916826;75;21126;-83
2023/04/01 06:29:30;;;;;;;3.27;1.10;;;9.80;99.90;;;;;;1917049;75;21134;-81
2023/04/01 06:32:45;;;;;;;2.47;1.00;;;10.10;99.90;;;;;;1916836;75;21667;-81
2023/04/01 06:35:53;;;;;;;3.55;1.10;;;10.10;99.90;;;;;;1934404;73;21192;-81
2023/04/01 06:38:48;;;;;;;;;;;10.20;99.90;;;;;;1919746;75;21111;-81
2023/04/01 06:42:05;;;;;;;4.40;1.50;;;10.40;99.90;;;;;;1927938;73;20163;-81
2023/04/01 06:45:05;;;;;;;4.03;1.90;;;10.50;99.90;;;;;;1938217;73;21176;-81
2023/04/01 06:48:24;;;;;;;3.87;2.02;;;10.70;99.90;;;;;;1916853;75;21106;-84
2023/04/01 06:51:40;;;;;;;4.65;1.95;;;10.70;99.90;;;;;;1929993;73;21240;-81
2023/04/01 06:54:41;;;;;;;3.55;1.32;;;10.80;99.90;;;;;;1911587;73;21111;-82
2023/04/01 06:57:54;;;;;;;3.22;1.60;;;10.90;99.90;;;;;;1946823;73;21137;-81
2023/04/01 07:06:15;;;;;;;3.80;1.20;;;11.00;99.90;;;;;;1940430;72;22176;-74
2023/04/01 07:09:12;;;;;;;4.15;1.60;;;11.10;99.90;;;;;;1891316;73;21134;-76
2023/04/01 07:12:24;;;;;;;3.70;1.37;;;11.10;99.90;;;;;;1905964;75;21082;-76
2023/04/01 07:15:26;;;;;;;7.03;1.30;;;10.90;99.90;;;;;;1868816;75;21605;-75
2023/04/01 07:18:22;;;;;;;2.83;1.32;;;10.90;99.90;;;;;;1891700;75;21115;-75
2023/04/01 07:21:19;;;;;;;3.35;1.40;;;11.00;99.90;;;;;;1902692;75;21937;-75
2023/04/01 07:24:17;;;;;;;2.70;1.17;;;11.20;99.90;;;;;;1898218;75;21204;-75
2023/04/01 07:27:11;;;;;;;;;;;11.40;99.90;;;;;;1898273;75;21561;-75
2023/04/01 07:30:05;;;;;;;2.85;1.20;;;11.50;99.90;;;;;;1916792;73;20209;-75
2023/04/01 07:32:59;;;;;;;3.72;1.20;;;11.60;99.90;;;;;;1894628;75;21170;-76
2023/04/01 07:35:55;;;;;;;4.30;1.37;;;11.70;99.90;;;;;;1896567;75;21517;-76
2023/04/01 07:41:33;;;;;;;4.97;1.52;;;11.90;99.90;;;;;;1943890;72;22683;-75
2023/04/01 07:47:34;;;;;;;3.22;1.20;;;11.70;99.90;;;;;;1952839;72;22190;-78
2023/04/01 07:50:29;;;;;;;4.80;1.40;;;11.80;99.90;;;;;;1903535;75;21059;-80
2023/04/01 07:53:25;;;;;;;4.25;1.77;;;11.90;99.90;;;;;;1912750;73;21148;-79
2023/04/01 07:56:20;;;;;;;4.75;1.50;;;12.00;99.90;;;;;;1901758;75;21125;-79
2023/04/01 07:59:15;;;;;;;4.22;1.85;;;12.10;99.90;;;;;;1895159;75;21106;-82
2023/04/01 08:02:18;;;;;;;4.55;1.50;;;11.90;99.90;;;;;;1916095;75;21520;-79
2023/04/01 08:08:00;;;;;;;3.67;1.60;;;11.90;99.90;;;;;;1954266;72;22267;-79
2023/04/01 08:10:58;;;;;;;2.67;1.40;;;12.00;99.90;;;;;;1871951;75;21107;-77
2023/04/01 08:14:12;;;;;;;3.20;1.42;;;11.90;99.90;;;;;;1894695;75;21151;-77
2023/04/01 08:17:26;;;;;;;3.50;1.30;;;11.70;99.90;;;;;;1894956;75;21173;-76
2023/04/01 08:20:26;;;;;;;3.52;2.05;;;11.80;99.90;;;;;;1888150;75;21128;-76
2023/04/01 08:23:21;;;;;;;4.00;2.12;;;11.90;99.90;;;;;;1886852;75;21126;-76
2023/04/01 08:26:16;;;;;;;2.75;1.15;;;11.90;99.90;;;;;;1896206;75;21248;-77
2023/04/01 08:29:12;;;;;;;2.80;1.62;;;11.70;99.90;;;;;;1899687;75;21106;-76
2023/04/01 08:32:06;;;;;;;2.80;1.15;;;11.70;99.90;;;;;;1895329;75;21550;-76
2023/04/01 08:35:01;;;;;;;3.02;1.50;;;11.70;99.90;;;;;;1894338;75;21098;-76
2023/04/01 08:37:57;;;;;;;2.27;1.10;;;11.70;99.90;;;;;;1894150;75;21150;-76
2023/04/01 08:41:01;;;;;;;4.05;1.17;;;11.90;99.90;;;;;;1895558;75;21156;-76
2023/04/01 08:44:15;;;;;;;2.05;0.72;;;12.00;99.90;;;;;;1883717;75;21156;-77
2023/04/01 08:47:37;;;;;;;2.02;0.80;;;12.00;99.90;;;;;;1883439;76;21147;-77
2023/04/01 08:50:51;;;;;;;1.98;0.72;;;12.00;99.90;;;;;;1900968;75;21209;-77
2023/04/01 08:54:13;;;;;;;2.70;1.10;;;12.10;99.90;;;;;;1903929;75;21393;-77
2023/04/01 08:57:07;;;;;;;3.55;1.25;;;12.30;99.90;;;;;;1883769;76;21782;-77
2023/04/01 09:00:07;;;;;;;3.37;0.85;;;12.60;99.90;;;;;;1892588;75;21154;-76
2023/04/01 09:06:34;;;;;;;2.67;1.30;;;13.00;99.90;;;;;;1948271;72;22308;-77
2023/04/01 09:09:44;;;;;;;3.47;1.60;;;12.90;99.90;;;;;;1929877;73;21130;-76
2023/04/01 09:15:53;;;;;;;5.47;1.35;;;13.00;99.90;;;;;;1917616;72;22161;-78
2023/04/01 09:19:15;;;;;;;3.30;1.40;;;13.10;99.90;;;;;;1911639;74;21132;-76
2023/04/01 09:22:28;;;;;;;3.00;0.95;;;13.30;99.90;;;;;;1912354;74;21063;-78
2023/04/01 09:28:36;;;;;;;3.37;1.00;;;13.70;99.90;;;;;;1948248;72;22327;-77
2023/04/01 09:31:53;;;;;;;2.62;0.82;;;13.90;99.90;;;;;;1886407;75;21141;-76
2023/04/01 09:35:11;;;;;;;1.37;1.00;;;14.10;99.90;;;;;;1893656;75;21154;-77
2023/04/01 09:38:07;;;;;;;2.27;1.12;;;14.40;99.90;;;;;;1894564;75;21326;-76
2023/04/01 09:41:01;;;;;;;2.50;1.00;;;14.50;99.90;;;;;;1893698;75;21154;-77
2023/04/01 09:46:52;;;;;;;2.83;0.50;;;14.50;99.90;;;;;;1932075;72;22263;-78
2023/04/01 09:49:53;;;;;;;2.37;0.60;;;14.20;99.90;;;;;;1884298;74;21232;-78
2023/04/01 09:52:48;;;;;;;1.40;0.40;;;14.40;99.90;;;;;;1888139;75;21106;-77
2023/04/01 09:56:43;;;;;;;1.15;0.40;;;14.40;99.90;;;;;;1912177;75;21180;-78
2023/04/01 10:00:12;;;;;;;1.52;0.50;;;14.50;99.90;;;;;;1894685;75;21130;-77
2023/04/01 10:03:41;;;;;;;2.27;0.78;;;14.80;99.90;;;;;;1862235;76;21667;-77
2023/04/01 10:07:11;;;;;;;2.52;0.70;;;14.70;99.90;;;;;;1900009;75;21102;-77
2023/04/01 10:10:34;;;;;;;2.87;0.82;;;14.50;99.90;;;;;;1882965;75;21103;-77
2023/04/01 10:14:02;;;;;;;1.70;0.50;;;14.40;99.90;;;;;;1906354;75;21176;-77
2023/04/01 10:17:40;;;;;;;1.72;0.50;;;14.60;99.90;;;;;;1892116;73;21101;-77
2023/04/01 10:20:57;;;;;;;2.58;0.50;;;14.40;99.90;;;;;;1893731;75;21204;-77
2023/04/01 10:24:27;;;;;;;1.52;0.70;;;14.40;99.90;;;;;;1884656;75;21170;-77
2023/04/01 10:27:30;;;;;;;1.85;0.50;;;14.40;99.90;;;;;;1897438;75;21644;-77
2023/04/01 10:31:07;;;;;;;2.08;0.95;;;14.40;99.90;;;;;;1883786;76;21638;-77
2023/04/01 10:34:41;;;;;;;2.10;0.60;;;14.40;99.90;;;;;;1899478;75;21105;-76
2023/04/01 10:41:12;;;;;;;2.60;0.70;;;14.30;99.90;;;;;;1952951;72;22244;-75
2023/04/01 10:44:57;;;;;;;2.02;0.53;;;14.20;99.90;;;;;;1909285;74;21093;-78
2023/04/01 10:48:21;;;;;;;2.65;0.60;;;14.20;99.90;;;;;;1828421;75;21106;-77
2023/04/01 10:51:42;;;;;;;2.52;0.72;;;14.00;99.90;;;;;;1894206;75;21087;-76
2023/04/01 10:54:48;;;;;;;1.70;0.88;;;14.10;99.90;;;;;;1893873;75;21086;-76
2023/04/01 10:58:15;;;;;;;3.05;0.70;;;14.10;99.90;;;;;;1905861;74;21109;-77
2023/04/01 11:01:42;;;;;;;2.55;0.68;;;14.20;99.90;;;;;;1903948;75;21090;-77
2023/04/01 11:05:40;;;;;;;1.95;0.50;;;14.50;99.90;;;;;;1849014;74;21213;-77
2023/04/01 11:09:11;;;;;;;1.52;0.53;;;14.40;99.90;;;;;;1817574;78;21131;-77
2023/04/01 11:12:51;;;;;;;2.35;0.80;;;14.30;99.90;;;;;;1806408;75;21187;-76
2023/04/01 11:16:25;;;;;;;1.30;0.53;;;14.50;99.90;;;;;;1891674;73;21196;-77
2023/04/01 11:19:52;;;;;;;1.42;0.50;;;14.60;99.90;;;;;;1916507;75;21117;-77
2023/04/01 11:23:11;;;;;;;1.10;0.40;;;14.50;99.90;;;;;;1901143;75;21223;-78
2023/04/01 11:26:09;;;;;;;1.37;0.35;;;14.30;99.90;;;;;;1902910;75;21174;-78
2023/04/01 11:32:53;;;;;;;1.50;0.50;;;14.10;99.90;;;;;;1953281;72;22224;-77
2023/04/01 11:36:02;;;;;;;1.30;0.55;;;13.90;99.90;;;;;;1901104;74;21534;-79
2023/04/01 11:39:06;;;;;;;1.72;0.40;;;13.70;99.90;;;;;;1883650;76;21166;-78
2023/04/01 11:42:21;;;;;;;1.07;0.60;;;13.50;99.90;;;;;;1902939;75;21547;-77
2023/04/01 11:45:37;;;;;;;1.72;0.50;;;13.60;99.90;;;;;;1897734;75;21085;-77
2023/04/01 11:48:55;;;;;;;1.22;0.50;;;13.80;99.90;;;;;;1899229;75;21155;-76
2023/04/01 11:52:13;;;;;;;1.90;0.60;;;13.70;99.90;;;;;;1916381;75;21101;-77
2023/04/01 11:55:11;;;;;;;1.15;0.50;;;13.80;99.90;;;;;;1883663;76;21197;-77
2023/04/01 11:58:31;;;;;;;2.27;0.53;;;13.90;99.90;;;;;;1896525;75;21102;-77
2023/04/01 12:01:33;;;;;;;2.10;0.20;;;14.20;99.90;;;;;;1902189;75;22295;-79
2023/04/01 12:04:54;;;;;;;1.87;0.40;;;14.20;99.90;;;;;;1905269;75;21204;-77
2023/04/01 12:10:56;;;;;;;1.07;0.30;;;14.20;99.90;;;;;;1941522;72;22228;-78
2023/04/01 12:13:51;;;;;;;0.88;0.15;;;14.30;99.90;;;;;;1922070;74;21112;-78
2023/04/01 12:16:53;;;;;;;1.72;0.90;;;14.60;99.90;;;;;;1918310;74;21099;-78
2023/04/01 12:19:48;;;;;;;0.23;0.20;;;14.70;99.90;;;;;;1916613;75;21172;-77
2023/04/01 12:22:47;;;;;;;0.70;0.30;;;14.70;99.90;;;;;;1916582;75;21416;-78
2023/04/01 12:29:06;;;;;;;0.70;0.30;;;15.50;99.90;;;;;;1940661;72;28033;-78
2023/04/01 12:32:02;;;;;;;0.88;0.30;;;16.00;99.90;;;;;;1911709;75;21110;-77
2023/04/01 12:35:14;;;;;;;0.98;0.40;;;15.80;99.90;;;;;;1914828;75;21201;-76
2023/04/01 12:41:10;;;;;;;0.82;0.30;;;15.90;99.90;;;;;;1936795;72;22229;-76
2023/04/01 12:47:35;;;;;;;0.75;0.30;;;15.60;99.90;;;;;;1943017;72;22213;-78
2023/04/01 12:50:37;;;;;;;1.50;0.30;;;15.60;99.90;;;;;;1930514;73;21094;-77
2023/04/01 12:53:40;;;;;;;1.00;0.30;;;15.80;99.90;;;;;;1916318;75;21204;-77
2023/04/01 12:56:35;;;;;;;0.82;0.30;;;15.90;99.90;;;;;;1916328;75;21121;-77
2023/04/01 12:59:38;;;;;;;1.42;0.50;;;15.80;99.90;;;;;;1916369;75;21180;-78
2023/04/01 13:02:40;;;;;;;1.75;0.50;;;15.90;99.90;;;;;;1916581;75;21153;-77
2023/04/01 13:05:44;;;;;;;1.80;0.50;;;16.00;99.90;;;;;;1915183;75;21110;-77
2023/04/01 13:08:41;;;;;;;1.62;0.47;;;15.90;99.90;;;;;;1927720;73;21532;-78
2023/04/01 13:11:39;;;;;;;1.15;0.40;;;15.80;99.90;;;;;;1916592;75;21055;-78
2023/04/01 13:14:43;;;;;;;0.47;0.35;;;16.00;99.90;;;;;;1926609;74;21671;-78
2023/04/01 13:17:37;;;;;;;1.45;0.62;;;16.20;99.90;;;;;;1916622;73;21163;-78
2023/04/01 13:20:39;;;;;;;0.68;0.28;;;16.20;99.90;;;;;;1915487;75;21151;-77
2023/04/01 13:23:37;;;;;;;1.50;0.50;;;16.20;99.90;;;;;;1915850;75;21169;-78
2023/04/01 13:26:30;;;;;;;;;;;16.00;99.90;;;;;;1942046;73;21209;-77
2023/04/01 13:29:25;;;;;;;1.87;0.23;;;15.80;99.90;;;;;;1916010;75;20192;-78
2023/04/01 13:32:29;;;;;;;0.82;0.37;;;15.80;99.90;;;;;;1916011;73;21653;-78
2023/04/01 13:35:28;;;;;;;0.57;0.28;;;15.80;99.90;;;;;;1916500;75;21133;-77
2023/04/01 13:38:46;;;;;;;1.65;0.90;;;15.70;99.90;;;;;;1939001;73;21161;-78
2023/04/01 13:41:47;;;;;;;0.62;0.40;;;15.70;99.90;;;;;;1916492;75;21117;-78
2023/04/01 13:44:42;;;;;;;1.55;0.42;;;15.70;99.90;;;;;;1916391;75;21086;-78
2023/04/01 13:48:03;;;;;;;0.53;0.20;;;15.70;99.90;;;;;;1916473;74;21125;-78
2023/04/01 13:54:24;;;;;;;0.60;0.33;;;15.50;99.90;;;;;;1949997;72;22158;-77
2023/04/01 13:57:24;;;;;;;0.82;0.30;;;15.30;99.90;;;;;;1916305;75;21102;-77
2023/04/01 14:03:47;;;;;;;0.80;0.20;;;14.90;99.90;;;;;;1939513;72;38714;-85
2023/04/01 14:06:44;;;;;;;0.15;0.10;;;15.00;99.90;;;;;;1916510;75;21213;-85
2023/04/01 14:10:15;;;;;;;0.00;0.00;;;14.70;99.90;;;;;;1932270;73;21102;-84
2023/04/01 14:13:10;;;;;;;0.60;0.28;;;14.60;99.90;;;;;;1916791;75;21278;-84
2023/04/01 14:16:29;;;;;;;0.88;0.30;;;14.50;99.90;;;;;;1916956;75;21144;-84
2023/04/01 14:19:32;;;;;;;0.80;0.47;;;14.50;99.90;;;;;;1916498;73;21572;-85
2023/04/01 14:22:28;;;;;;;1.90;0.50;;;14.40;99.90;;;;;;1916870;75;21138;-84
2023/04/01 14:25:33;;;;;;;1.32;0.40;;;14.30;99.90;;;;;;1924983;73;21159;-83
2023/04/01 14:28:32;;;;;;;1.92;0.50;;;14.10;99.90;;;;;;1921039;73;21118;-84
2023/04/01 14:31:30;;;;;;;0.20;0.20;;;13.90;99.90;;;;;;1919697;73;21153;-84
2023/04/01 14:34:32;;;;;;;0.47;0.20;;;13.80;99.90;;;;;;1928606;73;21156;-78
2023/04/01 14:37:38;;;;;;;0.95;0.20;;;13.60;99.90;;;;;;1934650;73;21600;-79
2023/04/01 14:40:34;;;;;;;1.70;0.50;;;13.40;99.90;;;;;;1936240;73;22265;-78
2023/04/01 14:50:05;;;;;;;0.93;0.30;;;12.80;99.90;;;;;;1954623;72;22238;-80
2023/04/01 14:53:04;;;;;;;0.65;0.20;;;12.50;99.90;;;;;;1885130;74;21183;-79
2023/04/01 14:55:55;;;;;;;;;;;12.30;99.90;;;;;;1908711;75;21167;-79
2023/04/01 14:58:49;;;;;;;0.20;0.20;;;12.10;99.90;;;;;;1884078;75;20479;-79
2023/04/01 15:04:41;;;;;;;0.10;0.10;;;11.90;99.90;;;;;;1944029;72;22131;-80
2023/04/01 15:11:03;;;;;;;0.00;0.00;;;11.70;99.90;;;;;;1944181;72;22247;-80
2023/04/01 15:14:09;;;;;;;0.50;0.10;;;11.70;99.90;;;;;;1913520;75;21110;-80
2023/04/01 15:17:09;;;;;;;0.57;0.20;;;11.70;99.90;;;;;;1897205;73;21205;-79
2023/04/01 15:20:25;;;;;;;0.20;0.17;;;11.50;99.90;;;;;;1914002;75;21177;-78
2023/04/01 15:23:25;;;;;;;0.45;0.08;;;11.50;99.90;;;;;;1905529;75;21117;-80
2023/04/01 15:26:23;;;;;;;1.50;0.30;;;11.30;99.90;;;;;;1883308;76;21150;-79
2023/04/01 15:29:26;;;;;;;0.98;0.42;;;11.20;99.90;;;;;;1901053;75;21184;-78
2023/04/01 15:32:22;;;;;;;0.65;0.33;;;11.20;99.90;;;;;;1897858;75;21072;-79
2023/04/01 15:35:23;;;;;;;1.50;0.50;;;11.20;99.90;;;;;;1894490;75;21196;-79
2023/04/01 15:38:19;;;;;;;5.10;1.60;;;11.10;99.90;;;;;;1903105;75;21150;-79
2023/04/01 15:41:17;;;;;;;3.27;0.82;;;11.00;99.90;;;;;;1884169;75;21172;-78
2023/04/01 15:44:52;;;;;;;3.27;1.40;;;11.10;99.90;;;;;;1895081;75;21187;-78
2023/04/01 15:50:38;;;;;;;1.55;0.60;;;11.20;99.90;;;;;;1959199;72;22304;-79
2023/04/01 15:53:39;;;;;;;1.22;0.50;;;11.30;99.90;;;;;;1918759;74;21114;-79
2023/04/01 15:56:48;;;;;;;2.90;0.70;;;11.40;99.90;;;;;;1935155;74;21099;-79
2023/04/01 16:00:09;;;;;;;1.20;0.60;;;11.60;99.90;;;;;;1903918;75;21151;-78
2023/04/01 16:06:48;;;;;;;1.80;1.02;;;13.60;99.90;;;;;;1940733;72;22649;-79
2023/04/01 16:10:08;;;;;;;1.10;0.57;;;13.40;99.90;;;;;;1895751;75;21094;-79
2023/04/01 16:13:07;;;;;;;1.98;1.77;;;12.60;99.90;;;;;;1916336;75;21087;-78
2023/04/01 16:18:55;;;;;;;1.17;0.70;;;12.00;99.90;;;;;;1975208;72;22186;-77
2023/04/01 16:24:33;;;;;;;0.68;0.57;;;11.40;99.90;;;;;;1946825;72;22519;-79
2023/04/01 16:27:30;;;;;;;2.47;0.80;;;11.30;99.90;;;;;;1887211;75;21652;-79
2023/04/01 16:30:38;;;;;;;1.47;0.70;;;11.20;99.90;;;;;;1882658;75;21099;-79
2023/04/01 16:33:35;;;;;;;1.27;0.40;;;11.20;99.90;;;;;;1894358;75;21757;-78
2023/04/01 16:36:30;;;;;;;0.40;0.30;;;10.80;99.90;;;;;;1881662;75;21226;-78
2023/04/01 16:42:16;;;;;;;0.20;0.20;;;11.00;99.90;;;;;;1951405;72;22267;-80
2023/04/01 16:45:19;;;;;;;0.20;0.20;;;11.00;99.90;;;;;;1922783;73;21055;-80
2023/04/01 16:48:15;;;;;;;0.45;0.10;;;11.10;99.90;;;;;;1916635;75;21109;-77
2023/04/01 16:51:12;;;;;;;0.28;0.23;;;11.20;99.90;;;;;;1923373;73;21558;-80
2023/04/01 16:54:07;;;;;;;0.23;0.08;;;11.20;99.90;;;;;;1925098;73;21700;-77
2023/04/01 16:57:09;;;;;;;1.27;0.70;;;11.20;99.90;;;;;;1916565;75;21114;-77
2023/04/01 17:00:05;;;;;;;0.47;0.30;;;11.10;99.90;;;;;;1916561;75;21207;-77
2023/04/01 17:05:52;;;;;;;0.55;0.03;;;11.30;99.90;;;;;;1944371;72;22182;-79
2023/04/01 17:08:54;;;;;;;;;;;11.40;99.90;;;;;;1919557;75;21098;-77
2023/04/01 17:11:48;;;;;;;0.30;0.20;;;11.50;99.90;;;;;;1919552;73;20491;-76
2023/04/01 17:14:43;;;;;;;1.02;0.20;;;11.50;99.90;;;;;;1916383;75;21106;-77
2023/04/01 17:17:46;;;;;;;1.00;0.50;;;11.50;99.90;;;;;;1930610;73;21200;-77
2023/04/01 17:20:43;;;;;;;0.30;0.23;;;11.40;99.90;;;;;;1938221;73;21063;-77